Terminal Aerodrome Forecast
Issued by NWS Cleveland, OH

Home | Current Version | Previous Version | Text Only | Print | Product List | Glossary On
Versions: 1 2 3 4 5 6 7 8 9 10 11 12 13 14 15
915
FTUS41 KCLE 182334
TAFERI
TAF
KERI 182334Z 1900/1924 22014G22KT 6SM -SHRA OVC035
     FM190300 29020G30KT 3SM -SHRA OVC015
     FM190400 31020G38KT 3SM -SHRA OVC007
     FM191400 29018G30KT P6SM -SHRA OVC015
     FM192100 28015G25KT P6SM -SHSNRA OVC035=

USA.gov is the U.S. government's official web portal to all federal, state and local government web resources and services.